Time;durP1;ratioP1;P1;durP2;ratioP2;P2;SDS_P1;SDS_P2;PMS_P1;PMS_P2;Temp;Humidity;BMP_temperature;BMP_pressure;BME280_temperature;BME280_humidity;BME280_pressure;Samples;Min_cycle;Max_cycle;Signal;HPM_P1;HPM_P2
2024/03/20 00:01:44;;;;;;;;;21.75;18.25;;;;;15.00;74.75;101337.84;5078793;28;45708;-70
2024/03/20 00:04:09;;;;;;;;;17.75;17.25;;;;;14.97;74.75;101330.81;5079292;28;45432;-69
2024/03/20 00:06:35;;;;;;;;;24.50;22.75;;;;;15.00;75.05;101344.13;5077934;28;52332;-69
2024/03/20 00:09:01;;;;;;;;;16.25;15.00;;;;;14.88;75.11;101335.69;5073704;28;46165;-69
2024/03/20 00:11:27;;;;;;;;;19.75;19.25;;;;;14.94;74.94;101349.75;5078591;27;45602;-70
2024/03/20 00:13:52;;;;;;;;;21.75;19.25;;;;;14.82;75.18;101337.69;5079583;27;45373;-69
2024/03/20 00:16:17;;;;;;;;;23.75;23.00;;;;;14.87;75.29;101344.66;5079379;28;45369;-69
2024/03/20 00:18:43;;;;;;;;;23.75;23.75;;;;;14.81;75.39;101346.66;5078978;27;45389;-69
2024/03/20 00:21:08;;;;;;;;;20.00;18.25;;;;;14.85;75.41;101349.22;5078594;27;45625;-69
2024/03/20 00:23:33;;;;;;;;;21.00;19.75;;;;;14.76;75.72;101337.06;5079423;27;45485;-69
2024/03/20 00:26:00;;;;;;;;;24.25;21.50;;;;;14.67;76.01;101330.25;5076969;28;61229;-69
2024/03/20 00:28:25;;;;;;;;;23.00;21.25;;;;;14.66;75.79;101333.84;5078975;27;47226;-69
2024/03/20 00:30:51;;;;;;;;;23.25;21.25;;;;;14.70;75.60;101338.19;5078350;27;45486;-69
2024/03/20 00:33:16;;;;;;;;;21.50;20.00;;;;;14.68;75.84;101331.09;5079344;27;45242;-69
2024/03/20 00:35:41;;;;;;;;;21.00;20.50;;;;;14.58;75.83;101314.44;5078792;27;45323;-70
2024/03/20 00:38:07;;;;;;;;;20.50;20.00;;;;;14.59;76.01;101308.19;5078815;28;45866;-70
2024/03/20 00:40:32;;;;;;;;;22.25;21.25;;;;;14.65;76.13;101321.38;5077773;28;56512;-69
2024/03/20 00:42:57;;;;;;;;;22.00;20.75;;;;;14.63;76.23;101329.50;5077784;28;45301;-69
2024/03/20 00:45:23;;;;;;;;;23.50;22.00;;;;;14.63;76.21;101336.66;5077524;28;45370;-70
2024/03/20 00:47:48;;;;;;;;;22.25;17.75;;;;;14.57;76.20;101335.06;5078633;27;55978;-69
2024/03/20 00:50:13;;;;;;;;;24.00;22.00;;;;;14.52;76.40;101320.94;5077895;28;45276;-69
2024/03/20 00:52:39;;;;;;;;;23.50;19.50;;;;;14.58;76.32;101344.91;5079040;27;45365;-69
2024/03/20 00:55:05;;;;;;;;;19.25;19.25;;;;;14.43;76.53;101313.25;5078859;28;45365;-69
2024/03/20 00:57:30;;;;;;;;;20.50;20.50;;;;;14.50;76.43;101327.31;5079115;27;45547;-70
2024/03/20 00:59:55;;;;;;;;;20.00;18.75;;;;;14.50;76.47;101336.25;5078665;28;45431;-69
2024/03/20 01:02:21;;;;;;;;;20.50;18.25;;;;;14.49;76.71;101333.63;5078131;28;45472;-69
2024/03/20 01:04:46;;;;;;;;;19.75;19.75;;;;;14.46;76.81;101330.09;5073434;27;45758;-69
2024/03/20 01:07:11;;;;;;;;;20.25;19.50;;;;;14.37;76.76;101321.56;5078614;27;46148;-69
2024/03/20 01:09:37;;;;;;;;;22.25;19.50;;;;;14.41;76.84;101334.78;5072590;27;45381;-70
2024/03/20 01:12:02;;;;;;;;;18.75;18.75;;;;;14.29;76.76;101311.09;5077315;28;45500;-69
2024/03/20 01:14:27;;;;;;;;;20.50;18.75;;;;;14.39;76.72;101328.59;5078615;28;45361;-70
2024/03/20 01:16:53;;;;;;;;;20.00;18.50;;;;;14.35;76.99;101332.34;5078364;27;45356;-70
2024/03/20 01:19:18;;;;;;;;;18.25;16.75;;;;;14.35;76.90;101334.16;5080835;27;56556;-69
2024/03/20 01:21:44;;;;;;;;;24.25;21.00;;;;;14.21;77.07;101307.84;5081580;27;46414;-70
2024/03/20 01:24:09;;;;;;;;;19.50;18.25;;;;;14.30;76.97;101333.44;5081904;27;45311;-69
2024/03/20 01:26:34;;;;;;;;;20.50;19.50;;;;;14.29;77.27;101331.72;5080350;28;47271;-69
2024/03/20 01:29:00;;;;;;;;;20.75;18.75;;;;;14.24;77.08;101324.69;5082102;27;45427;-69
2024/03/20 01:31:25;;;;;;;;;20.25;19.50;;;;;14.21;77.24;101319.44;5080665;28;61419;-69
2024/03/20 01:33:51;;;;;;;;;23.00;21.25;;;;;14.18;77.17;101318.69;5081564;27;45290;-69
2024/03/20 01:36:16;;;;;;;;;21.50;18.50;;;;;14.20;77.25;101324.88;5081242;27;55645;-69
2024/03/20 01:38:41;;;;;;;;;22.50;17.50;;;;;14.20;77.45;101330.25;5081306;28;48729;-69
2024/03/20 01:41:07;;;;;;;;;18.25;17.25;;;;;14.19;77.61;101326.69;5081306;27;45475;-69
2024/03/20 01:43:32;;;;;;;;;18.50;18.50;;;;;14.09;77.48;101320.78;5081954;27;45318;-70
2024/03/20 01:46:24;;;;;;;;;16.75;16.50;;;;;14.19;77.34;101328.50;5080100;28;46829;-69
2024/03/20 01:48:49;;;;;;;;;18.75;17.50;;;;;14.05;77.90;101311.13;5068787;28;45498;-69
2024/03/20 01:51:15;;;;;;;;;21.50;19.25;;;;;14.14;77.44;101322.44;5080815;28;45337;-69
2024/03/20 01:53:40;;;;;;;;;17.25;15.75;;;;;14.13;77.73;101331.41;5081926;27;45599;-69
2024/03/20 01:56:06;;;;;;;;;22.25;19.75;;;;;14.00;77.76;101307.72;5081069;27;45497;-70
2024/03/20 01:58:31;;;;;;;;;19.25;16.50;;;;;14.12;77.65;101335.91;5081792;27;45297;-69
2024/03/20 02:00:56;;;;;;;;;25.50;24.00;;;;;14.08;78.02;101329.78;5080885;28;45298;-69
2024/03/20 02:03:22;;;;;;;;;21.25;19.00;;;;;14.05;77.55;101323.66;5081508;28;45302;-69
2024/03/20 02:05:48;;;;;;;;;20.50;17.00;;;;;13.98;77.69;101312.28;5074663;27;46849;-69
2024/03/20 02:08:13;;;;;;;;;21.75;19.50;;;;;14.06;77.98;101328.94;5081489;27;45282;-69
2024/03/20 02:10:38;;;;;;;;;21.75;19.75;;;;;14.05;77.73;101332.59;5080554;28;45394;-69
2024/03/20 02:13:05;;;;;;;;;18.25;18.25;;;;;14.02;78.11;101331.84;5078319;28;45255;-69
2024/03/20 02:15:34;;;;;;;;;21.00;18.75;;;;;14.01;78.15;101328.25;5080171;27;46988;-69
2024/03/20 02:18:01;;;;;;;;;20.25;19.25;;;;;13.94;77.94;101318.69;5069774;28;45394;-69
2024/03/20 02:20:26;;;;;;;;;15.25;14.00;;;;;13.98;78.25;101330.19;5079754;28;45359;-69
2024/03/20 02:22:52;;;;;;;;;21.25;20.50;;;;;13.97;78.19;101332.00;5081250;27;45387;-69
2024/03/20 02:25:17;;;;;;;;;22.75;21.75;;;;;13.87;78.24;101315.34;5078612;27;46992;-69
2024/03/20 02:27:42;;;;;;;;;29.75;28.25;;;;;13.87;77.98;101322.53;5073417;27;46945;-69
2024/03/20 02:30:12;;;;;;;;;55.50;46.00;;;;;13.79;78.26;101305.84;5076334;28;45404;-69
2024/03/20 02:32:38;;;;;;;;;78.00;67.00;;;;;13.84;78.53;101312.78;5080833;27;45319;-69
2024/03/20 02:35:03;;;;;;;;;82.75;74.75;;;;;13.85;78.10;101324.41;5080449;27;46314;-69
2024/03/20 02:37:28;;;;;;;;;81.25;69.00;;;;;13.85;78.42;101327.09;5077106;28;45476;-70
2024/03/20 02:39:54;;;;;;;;;82.25;71.75;;;;;13.83;78.61;101321.78;5074330;28;45314;-69
2024/03/20 02:42:20;;;;;;;;;92.25;85.75;;;;;13.84;78.67;101328.88;5088111;27;45509;-69
2024/03/20 02:44:45;;;;;;;;;76.50;62.50;;;;;13.78;78.38;101323.75;5079393;28;46552;-69
2024/03/20 02:47:11;;;;;;;;;109.33;102.00;;;;;13.82;78.59;101337.94;5079807;28;46659;-69
2024/03/20 02:49:36;;;;;;;;;86.25;79.50;;;;;13.71;78.26;101323.09;5080646;27;45429;-69
2024/03/20 02:52:01;;;;;;;;;89.75;82.50;;;;;13.78;78.72;101347.91;5072938;27;45580;-69
2024/03/20 02:54:27;;;;;;;;;100.75;90.50;;;;;13.71;78.74;101331.16;5080579;27;47015;-69
2024/03/20 02:56:52;;;;;;;;;117.00;112.00;;;;;13.71;78.71;101336.53;5080076;27;45416;-69
2024/03/20 02:59:17;;;;;;;;;101.00;89.75;;;;;13.74;78.83;101329.28;5074335;28;45355;-69
2024/03/20 03:01:43;;;;;;;;;77.25;57.50;;;;;13.67;79.00;101317.91;5085351;27;50688;-69
2024/03/20 03:04:08;;;;;;;;;67.50;52.75;;;;;13.65;78.81;101309.91;5082215;27;45418;-69
2024/03/20 03:06:33;;;;;;;;;98.25;85.50;;;;;13.65;78.94;101309.03;5080082;28;50617;-69
2024/03/20 03:08:59;;;;;;;;;121.67;100.67;;;;;13.56;79.09;101294.13;5073887;28;46402;-69
2024/03/20 03:11:24;;;;;;;;;140.67;118.67;;;;;13.73;79.02;101314.09;5078910;28;55203;-69
2024/03/20 03:13:49;;;;;;;;;108.67;86.00;;;;;13.71;79.01;101317.75;5079966;27;52071;-69
2024/03/20 03:16:15;;;;;;;;;84.00;70.25;;;;;13.62;79.01;101299.28;5077045;28;45381;-69
2024/03/20 03:18:40;;;;;;;;;129.75;113.50;;;;;13.62;79.06;101306.47;5077450;28;45529;-69
2024/03/20 03:21:12;;;;;;;;;191.75;152.00;;;;;13.40;79.18;101260.75;5080100;27;45628;-69
2024/03/20 03:23:37;;;;;;;;;200.50;151.50;;;;;13.62;79.11;101288.56;5080027;28;46049;-69
2024/03/20 03:26:06;;;;;;;;;197.75;155.25;;;;;13.59;79.05;101285.97;5078488;28;46184;-69
2024/03/20 03:28:31;;;;;;;;;167.50;147.50;;;;;13.70;79.23;101305.25;5079593;27;45577;-69
2024/03/20 03:31:00;;;;;;;;;110.00;93.75;;;;;13.59;79.08;101285.97;5079932;28;45762;-69
2024/03/20 03:33:25;;;;;;;;;80.25;63.00;;;;;13.29;79.03;101243.19;5076235;28;47733;-69
2024/03/20 03:35:51;;;;;;;;;63.50;45.50;;;;;13.66;79.25;101303.59;5079913;28;45349;-69
2024/03/20 03:38:16;;;;;;;;;46.50;37.75;;;;;13.67;78.94;101315.22;5079186;27;45357;-69
2024/03/20 03:40:41;;;;;;;;;31.25;27.50;;;;;13.61;79.15;101302.03;5085295;27;45477;-69
2024/03/20 03:43:07;;;;;;;;;28.00;27.25;;;;;13.51;79.27;101282.69;5086189;27;45398;-69
2024/03/20 03:45:32;;;;;;;;;23.50;23.50;;;;;13.54;79.11;101287.94;5078149;28;60309;-69
2024/03/20 03:47:57;;;;;;;;;26.50;23.50;;;;;13.52;79.31;101287.13;5071142;28;45352;-69
2024/03/20 03:50:23;;;;;;;;;25.00;20.75;;;;;13.51;79.39;101282.69;5079482;28;46316;-70
2024/03/20 03:52:49;;;;;;;;;21.00;18.50;;;;;13.43;79.39;101279.41;5079633;27;46071;-69
2024/03/20 03:55:14;;;;;;;;;20.00;20.00;;;;;13.55;79.66;101289.72;5079811;27;45920;-69
2024/03/20 03:57:40;;;;;;;;;21.75;21.25;;;;;13.51;79.47;101271.97;5079186;27;45531;-69
2024/03/20 04:00:07;;;;;;;;;20.25;17.50;;;;;13.59;79.76;101283.28;5079635;27;45517;-69
2024/03/20 04:02:32;;;;;;;;;23.75;23.75;;;;;13.52;79.79;101263.88;5078084;28;46060;-69
2024/03/20 04:04:57;;;;;;;;;20.25;16.50;;;;;13.53;80.01;101275.47;5079207;28;45442;-69
2024/03/20 04:07:23;;;;;;;;;26.25;22.75;;;;;13.62;79.72;101282.31;5078547;27;45404;-69
2024/03/20 04:09:49;;;;;;;;;21.50;20.25;;;;;13.56;79.81;101269.13;5079444;27;45452;-69
2024/03/20 04:12:14;;;;;;;;;28.25;27.00;;;;;13.49;79.64;101260.44;5079497;28;45215;-69
2024/03/20 04:14:39;;;;;;;;;25.75;22.25;;;;;13.53;79.96;101262.94;5079592;28;45297;-69
2024/03/20 04:17:05;;;;;;;;;23.75;23.50;;;;;13.55;80.04;101273.63;5078474;27;45312;-69
2024/03/20 04:19:30;;;;;;;;;24.50;23.75;;;;;13.63;79.88;101278.69;5079304;27;45642;-69
2024/03/20 04:21:58;;;;;;;;;28.75;25.50;;;;;13.62;79.73;101285.88;5079023;28;48648;-69
2024/03/20 04:24:23;;;;;;;;;30.50;30.50;;;;;13.60;79.95;101274.31;5079189;28;45441;-69
2024/03/20 04:26:49;;;;;;;;;28.00;26.50;;;;;13.65;80.07;101285.75;5079768;27;45322;-69
2024/03/20 04:29:15;;;;;;;;;24.00;20.25;;;;;13.64;79.88;101289.38;5080452;27;45697;-69
2024/03/20 04:31:40;;;;;;;;;26.50;23.75;;;;;13.53;80.12;101264.72;5078936;27;45528;-69
2024/03/20 04:34:05;;;;;;;;;26.50;25.00;;;;;13.58;80.07;101280.66;5079133;27;45319;-69
2024/03/20 04:36:31;;;;;;;;;25.75;25.50;;;;;13.59;80.17;101285.97;5078929;27;45304;-69
2024/03/20 04:38:56;;;;;;;;;32.25;27.00;;;;;13.44;80.07;101270.44;5077977;27;45286;-69
2024/03/20 04:41:22;;;;;;;;;21.25;19.50;;;;;13.51;80.15;101277.31;5078966;28;45552;-69
2024/03/20 04:43:49;;;;;;;;;28.50;28.50;;;;;13.48;80.31;101274.75;5079038;28;45416;-69
2024/03/20 04:46:14;;;;;;;;;39.50;31.00;;;;;13.49;80.27;101280.06;5079153;27;45480;-69
2024/03/20 04:48:39;;;;;;;;;28.00;25.75;;;;;13.52;80.50;101290.69;5077850;27;45341;-69
2024/03/20 04:51:05;;;;;;;;;29.25;27.00;;;;;13.53;80.43;101295.13;5071272;28;46033;-69
2024/03/20 04:53:30;;;;;;;;;33.25;28.50;;;;;13.52;80.43;101298.72;5080345;28;53555;-69
2024/03/20 04:55:55;;;;;;;;;29.00;27.25;;;;;13.47;80.64;101299.84;5082805;28;45406;-69
2024/03/20 04:58:21;;;;;;;;;30.50;29.00;;;;;13.34;80.56;101278.81;5081191;28;55892;-69
2024/03/20 05:00:46;;;;;;;;;32.00;28.75;;;;;13.45;80.38;101291.84;5082308;28;45317;-69
2024/03/20 05:03:11;;;;;;;;;30.00;27.25;;;;;13.43;80.48;101300.88;5082384;27;45305;-69
2024/03/20 05:05:38;;;;;;;;;25.75;25.75;;;;;13.37;80.50;101287.69;5081260;27;45985;-69
2024/03/20 05:08:03;;;;;;;;;31.50;28.75;;;;;13.41;80.56;101300.03;5080944;27;45346;-69
2024/03/20 05:10:29;;;;;;;;;25.25;24.50;;;;;13.40;80.78;101299.19;5081478;28;45396;-69
2024/03/20 05:12:54;;;;;;;;;27.75;27.50;;;;;13.33;80.60;101287.78;5082298;28;45309;-69
2024/03/20 05:15:19;;;;;;;;;29.50;27.75;;;;;13.32;80.86;101299.44;5081551;28;45350;-69
2024/03/20 05:17:45;;;;;;;;;27.50;27.25;;;;;13.32;80.88;101295.88;5081113;27;45471;-69
2024/03/20 05:20:10;;;;;;;;;30.00;28.00;;;;;13.32;80.79;101294.06;5081720;28;45623;-69
2024/03/20 05:22:36;;;;;;;;;26.00;25.75;;;;;13.26;80.80;101291.56;5082118;27;45404;-69
2024/03/20 05:25:01;;;;;;;;;25.50;25.25;;;;;13.28;80.69;101303.13;5081533;28;45602;-69
2024/03/20 05:27:27;;;;;;;;;18.25;9.50;;;;;13.21;81.05;101285.50;5067956;27;45235;-69
2024/03/20 05:29:52;;;;;;;;;28.25;25.50;;;;;13.27;80.88;101293.31;5081837;27;45419;-69
2024/03/20 05:32:17;;;;;;;;;24.75;23.75;;;;;13.00;80.84;101254.06;5067848;28;60813;-69
2024/03/20 05:34:43;;;;;;;;;19.75;19.00;;;;;13.19;81.02;101287.34;5082015;27;45453;-69
2024/03/20 05:37:08;;;;;;;;;24.50;24.00;;;;;13.19;80.72;101282.00;5080554;28;45319;-69
2024/03/20 05:39:34;;;;;;;;;23.75;22.00;;;;;13.28;80.80;101299.56;5080394;28;47265;-69
2024/03/20 05:41:59;;;;;;;;;23.25;19.50;;;;;13.21;80.93;101290.84;5093750;27;45480;-69
2024/03/20 05:44:24;;;;;;;;;25.75;22.75;;;;;13.25;80.92;101292.50;5080699;28;45376;-69
2024/03/20 05:46:51;;;;;;;;;29.25;21.50;;;;;13.24;80.91;101295.25;5080971;27;45303;-69
2024/03/20 05:49:19;;;;;;;;;20.00;20.00;;;;;13.24;80.71;101292.56;5081266;27;45451;-69
2024/03/20 05:51:46;;;;;;;;;20.50;17.50;;;;;13.19;80.71;101287.34;5081372;27;45594;-69
2024/03/20 05:54:11;;;;;;;;;24.25;21.50;;;;;13.12;80.96;101280.47;5082044;27;45586;-69
2024/03/20 05:56:37;;;;;;;;;0.00;0.00;;;;;13.19;80.99;101299.91;5080584;28;54766;-69
2024/03/20 05:59:02;;;;;;;;;18.75;17.50;;;;;13.20;81.03;101302.53;5081538;28;45420;-69
2024/03/20 06:01:28;;;;;;;;;26.25;18.75;;;;;13.15;80.96;101288.41;5081433;28;45466;-69
2024/03/20 06:03:53;;;;;;;;;19.25;19.25;;;;;12.91;81.28;101255.25;5080641;27;45449;-69
2024/03/20 06:06:19;;;;;;;;;27.25;22.50;;;;;13.04;81.17;101279.84;5079974;27;45515;-69
2024/03/20 06:08:44;;;;;;;;;20.75;20.75;;;;;13.16;81.47;101306.22;5077311;27;46597;-70
2024/03/20 06:11:09;;;;;;;;;23.75;21.75;;;;;13.16;81.31;101314.25;5079628;28;45446;-69
2024/03/20 06:13:34;;;;;;;;;24.25;23.25;;;;;13.05;81.22;101295.00;5081539;28;45267;-69
2024/03/20 06:16:00;;;;;;;;;21.50;18.50;;;;;13.13;81.39;101312.56;5075584;28;45526;-69
2024/03/20 06:18:25;;;;;;;;;24.25;23.75;;;;;13.07;81.38;101304.75;5072057;28;45667;-69
2024/03/20 06:20:50;;;;;;;;;27.00;21.75;;;;;13.09;81.63;101310.03;5076057;28;45411;-69
2024/03/20 06:23:16;;;;;;;;;21.75;21.75;;;;;13.11;81.66;101318.91;5072464;28;49326;-69
2024/03/20 06:25:41;;;;;;;;;28.00;24.00;;;;;13.10;81.69;101318.03;5080194;27;45544;-69
2024/03/20 06:28:06;;;;;;;;;25.25;21.75;;;;;13.00;81.80;101299.63;5080537;27;47033;-69
2024/03/20 06:30:32;;;;;;;;;22.00;21.50;;;;;13.12;81.75;101312.63;5080847;28;47395;-69
2024/03/20 06:32:58;;;;;;;;;21.50;21.25;;;;;13.10;81.70;101309.13;5080413;28;45376;-69
2024/03/20 06:35:23;;;;;;;;;29.50;26.50;;;;;13.05;81.94;101289.66;5080351;27;45295;-69
2024/03/20 06:37:49;;;;;;;;;33.00;27.50;;;;;13.01;81.98;101287.97;5069218;28;46267;-69
2024/03/20 06:40:15;;;;;;;;;30.00;29.25;;;;;13.09;82.17;101285.94;5078078;27;45861;-69
2024/03/20 06:42:40;;;;;;;;;25.00;24.00;;;;;13.18;82.20;101312.44;5078687;28;45375;-69
2024/03/20 06:45:06;;;;;;;;;31.25;26.00;;;;;13.11;82.17;101301.03;5078923;28;45414;-72
2024/03/20 06:47:32;;;;;;;;;29.25;26.25;;;;;13.19;82.10;101314.16;5080163;27;46487;-75
2024/03/20 06:49:58;;;;;;;;;27.00;24.75;;;;;13.23;82.04;101320.28;5079973;27;45496;-75
2024/03/20 06:52:24;;;;;;;;;27.00;26.50;;;;;13.17;82.22;101316.03;5081576;27;45533;-72
2024/03/20 06:54:50;;;;;;;;;25.00;22.50;;;;;12.99;82.34;101288.03;5080582;27;45521;-70
2024/03/20 06:57:18;;;;;;;;;25.50;23.25;;;;;13.24;82.41;101325.59;5080248;27;45419;-70
2024/03/20 06:59:44;;;;;;;;;21.25;20.00;;;;;13.20;82.40;101323.97;5065558;28;45672;-70
2024/03/20 07:02:09;;;;;;;;;25.75;22.50;;;;;13.33;82.39;101346.78;5078621;28;45445;-71
2024/03/20 07:04:36;;;;;;;;;24.75;22.75;;;;;13.33;82.27;101338.75;5078697;28;45520;-71
2024/03/20 07:07:03;;;;;;;;;31.75;28.25;;;;;13.22;82.44;101318.56;5077955;27;47216;-73
2024/03/20 07:09:30;;;;;;;;;23.50;22.75;;;;;13.34;82.34;101335.09;5079039;28;45587;-72
2024/03/20 07:11:55;;;;;;;;;28.50;25.00;;;;;13.28;82.32;101321.00;5077955;28;45519;-74
2024/03/20 07:14:21;;;;;;;;;27.25;22.50;;;;;13.18;82.29;101296.34;5078942;28;46028;-75
2024/03/20 07:16:46;;;;;;;;;26.75;24.75;;;;;13.26;81.93;101302.28;5079543;27;45504;-75
2024/03/20 07:19:12;;;;;;;;;28.25;27.25;;;;;13.39;81.99;101318.00;5079473;27;45333;-76
2024/03/20 07:21:39;;;;;;;;;31.50;30.00;;;;;13.53;81.91;101337.16;5076747;27;45741;-75
2024/03/20 07:24:08;;;;;;;;;28.75;25.75;;;;;13.41;82.29;101310.78;5078414;28;45718;-74
2024/03/20 07:26:38;;;;;;;;;29.00;25.50;;;;;13.47;82.07;101316.78;5058943;28;47150;-74
2024/03/20 07:29:09;;;;;;;;;27.75;27.75;;;;;13.56;81.82;101325.44;5068004;28;45605;-74
2024/03/20 07:31:34;;;;;;;;;25.25;23.75;;;;;13.47;82.10;101298.03;5078777;28;45545;-74
2024/03/20 07:34:01;;;;;;;;;26.75;25.75;;;;;13.58;82.03;101311.06;5071463;27;45493;-74
2024/03/20 07:36:27;;;;;;;;;32.00;26.00;;;;;13.63;82.11;101310.88;5066623;28;45512;-74
2024/03/20 07:38:53;;;;;;;;;24.50;20.75;;;;;13.76;82.04;101325.59;5079749;27;45678;-74
2024/03/20 07:41:19;;;;;;;;;18.50;17.00;;;;;13.75;81.90;101313.13;5082782;27;45319;-74
2024/03/20 07:43:45;;;;;;;;;21.50;20.50;;;;;13.78;81.99;101325.53;5064627;27;45616;-75
2024/03/20 07:46:13;;;;;;;;;26.00;24.00;;;;;13.77;81.96;101315.75;5080105;27;48001;-75
2024/03/20 07:48:39;;;;;;;;;30.50;28.75;;;;;13.86;81.59;101326.16;5075776;27;45675;-75
2024/03/20 07:51:05;;;;;;;;;24.00;22.25;;;;;13.94;81.75;101336.59;5079017;27;45441;-75
2024/03/20 07:53:31;;;;;;;;;26.25;24.75;;;;;13.88;81.73;101321.59;5072331;27;45375;-73
2024/03/20 07:55:56;;;;;;;;;25.50;24.00;;;;;13.99;81.61;101340.88;5075367;27;47028;-73
2024/03/20 07:58:22;;;;;;;;;29.25;25.50;;;;;13.88;81.73;101319.81;5078507;28;56741;-73
2024/03/20 08:00:47;;;;;;;;;26.50;23.50;;;;;14.00;81.89;101333.69;5080156;27;45496;-73
2024/03/20 08:03:13;;;;;;;;;30.00;26.25;;;;;14.08;81.14;101348.59;5079902;27;45354;-74
2024/03/20 08:05:38;;;;;;;;;26.75;26.50;;;;;14.05;81.40;101340.66;5078016;27;52969;-74
2024/03/20 08:08:04;;;;;;;;;27.50;26.50;;;;;14.01;81.30;101328.25;5081320;27;45401;-73
2024/03/20 08:10:30;;;;;;;;;27.25;26.75;;;;;14.07;80.67;101338.78;5079275;27;45370;-70
2024/03/20 08:12:55;;;;;;;;;24.00;23.00;;;;;14.13;80.60;101339.47;5076493;28;45606;-74
2024/03/20 08:15:21;;;;;;;;;31.50;29.50;;;;;14.05;80.45;101337.97;5077781;27;45483;-73
2024/03/20 08:17:46;;;;;;;;;26.00;25.25;;;;;14.02;80.77;101321.09;5078774;27;45618;-73
2024/03/20 08:20:13;;;;;;;;;24.25;23.00;;;;;14.14;80.90;101336.72;5078756;27;45883;-73
2024/03/20 08:22:40;;;;;;;;;30.00;30.00;;;;;14.21;81.07;101346.28;5078194;27;45557;-70
2024/03/20 08:25:06;;;;;;;;;24.75;23.75;;;;;14.32;80.51;101355.78;5075420;27;45661;-70
2024/03/20 08:27:31;;;;;;;;;22.25;21.75;;;;;14.35;80.48;101355.63;5077224;27;45560;-70
2024/03/20 08:29:58;;;;;;;;;23.75;23.75;;;;;14.31;80.64;101343.28;5077694;28;45385;-70
2024/03/20 08:32:23;;;;;;;;;21.50;21.50;;;;;14.35;80.58;101347.56;5076297;28;45654;-70
2024/03/20 08:34:49;;;;;;;;;26.00;24.75;;;;;14.39;80.70;101350.09;5076515;27;45358;-70
2024/03/20 08:37:14;;;;;;;;;29.00;27.00;;;;;14.46;80.62;101359.66;5073280;27;69578;-70
2024/03/20 08:39:40;;;;;;;;;27.75;24.50;;;;;14.49;80.69;101352.44;5084581;27;45819;-70
2024/03/20 08:42:06;;;;;;;;;30.25;28.25;;;;;14.53;80.77;101354.06;5077023;27;45660;-70
2024/03/20 08:44:31;;;;;;;;;24.50;24.00;;;;;14.57;80.32;101347.63;5076562;27;46637;-70
2024/03/20 08:46:57;;;;;;;;;30.50;28.50;;;;;14.66;80.50;101357.19;5077028;27;49446;-70
2024/03/20 08:49:22;;;;;;;;;45.75;39.00;;;;;14.70;80.40;101348.94;5076173;27;45493;-70
2024/03/20 08:51:48;;;;;;;;;26.75;26.50;;;;;14.69;80.07;101344.50;5076591;27;45490;-70
2024/03/20 08:54:13;;;;;;;;;24.50;24.50;;;;;14.75;79.67;101343.34;5079424;27;45349;-70
2024/03/20 08:56:38;;;;;;;;;26.50;25.00;;;;;14.83;80.07;101349.28;5077186;27;45619;-71
2024/03/20 08:59:04;;;;;;;;;25.50;25.00;;;;;14.85;79.22;101346.56;5076885;27;53510;-69
2024/03/20 09:01:29;;;;;;;;;28.75;27.50;;;;;14.87;78.68;101350.03;5077019;27;45484;-69
2024/03/20 09:03:55;;;;;;;;;27.50;27.25;;;;;14.79;79.23;101336.94;5074872;27;47611;-68
2024/03/20 09:06:20;;;;;;;;;27.50;25.00;;;;;14.92;79.34;101348.94;5076292;27;45294;-69
2024/03/20 09:08:45;;;;;;;;;29.75;26.25;;;;;14.97;78.72;101348.75;5077086;27;45539;-69
2024/03/20 09:11:11;;;;;;;;;28.50;25.25;;;;;14.81;78.41;101318.94;5076744;27;45290;-69
2024/03/20 09:13:38;;;;;;;;;35.25;31.50;;;;;14.99;78.71;101354.94;5086350;27;47364;-68
2024/03/20 09:16:04;;;;;;;;;55.50;45.25;;;;;14.95;78.67;101337.16;5077172;27;46952;-70
2024/03/20 09:18:30;;;;;;;;;26.25;23.75;;;;;15.10;78.29;101351.78;5077640;27;45578;-68
2024/03/20 09:20:56;;;;;;;;;48.00;36.25;;;;;15.15;78.29;101355.16;5076299;27;45490;-68
2024/03/20 09:23:22;;;;;;;;;47.50;37.75;;;;;15.22;78.38;101356.69;5076949;27;46138;-69
2024/03/20 09:25:47;;;;;;;;;30.00;29.00;;;;;15.26;78.28;101360.09;5077334;27;45472;-68
2024/03/20 09:28:13;;;;;;;;;20.50;18.50;;;;;15.31;78.55;101356.28;5077640;27;45490;-68
2024/03/20 09:30:38;;;;;;;;;25.75;24.00;;;;;15.38;77.78;101351.50;5077389;27;46225;-68
2024/03/20 09:33:03;;;;;;;;;19.00;18.00;;;;;15.43;77.58;101362.06;5076394;27;45537;-67
2024/03/20 09:35:29;;;;;;;;;20.50;20.25;;;;;15.46;76.84;101357.44;5076261;27;45714;-67
2024/03/20 09:37:54;;;;;;;;;21.00;20.25;;;;;15.53;77.38;101355.34;5074825;27;45897;-68
2024/03/20 09:40:24;;;;;;;;;18.50;17.75;;;;;15.59;77.14;101348.84;5076705;27;45741;-68
2024/03/20 09:42:54;;;;;;;;;21.00;18.25;;;;;15.62;76.79;101348.69;5080265;28;46206;-68
2024/03/20 09:45:23;;;;;;;;;24.25;19.50;;;;;15.61;76.42;101339.75;5073818;27;45620;-68
2024/03/20 09:47:50;;;;;;;;;20.25;18.75;;;;;15.72;77.04;101348.22;5081208;27;45263;-69
2024/03/20 09:50:19;;;;;;;;;24.50;21.50;;;;;15.79;76.84;101345.31;5079764;27;45520;-68
2024/03/20 09:52:47;;;;;;;;;19.25;17.75;;;;;15.83;75.76;101344.22;5086091;27;46370;-68
2024/03/20 09:55:14;;;;;;;;;20.25;19.25;;;;;15.89;75.90;101347.50;5080247;27;45526;-68
2024/03/20 09:57:42;;;;;;;;;18.50;18.50;;;;;15.91;75.77;101328.59;5085317;27;45479;-68
2024/03/20 10:00:14;;;;;;;;;17.00;15.50;;;;;15.95;75.79;101335.56;5077527;27;45480;-68
2024/03/20 10:02:41;;;;;;;;;22.75;20.00;;;;;16.04;75.28;101339.69;5078524;27;45680;-68
2024/03/20 10:05:06;;;;;;;;;20.25;18.75;;;;;16.10;75.14;101339.38;5077863;27;45562;-68
2024/03/20 10:07:32;;;;;;;;;16.00;16.00;;;;;16.17;75.24;101334.59;5079910;27;45488;-68
2024/03/20 10:09:57;;;;;;;;;17.75;16.25;;;;;16.20;75.33;101327.25;5073355;27;47705;-68
2024/03/20 10:12:24;;;;;;;;;15.25;15.00;;;;;16.26;74.79;101323.41;5080184;27;46401;-69
2024/03/20 10:14:50;;;;;;;;;17.75;17.25;;;;;16.29;74.70;101328.66;5079920;27;45387;-69
2024/03/20 10:17:17;;;;;;;;;18.00;17.00;;;;;16.37;74.60;101325.56;5080634;27;45305;-70
2024/03/20 10:19:44;;;;;;;;;18.25;17.25;;;;;16.43;74.55;101323.47;5078473;27;45341;-68
2024/03/20 10:22:10;;;;;;;;;17.25;16.75;;;;;16.49;73.74;101322.31;5073415;27;45506;-68
2024/03/20 10:24:36;;;;;;;;;13.25;13.00;;;;;16.55;73.26;101321.13;5078837;27;45778;-68
2024/03/20 10:27:03;;;;;;;;;17.75;17.25;;;;;16.61;72.97;101323.53;5081072;27;45413;-68
2024/03/20 10:29:35;;;;;;;;;13.25;13.25;;;;;16.66;73.41;101316.09;5080125;27;45749;-68
2024/03/20 10:32:01;;;;;;;;;15.50;14.75;;;;;16.76;72.94;101321.94;5079105;27;46831;-68
2024/03/20 10:34:27;;;;;;;;;20.50;17.50;;;;;16.83;72.38;101317.97;5079699;27;45458;-69
2024/03/20 10:36:53;;;;;;;;;14.75;14.75;;;;;16.91;72.16;101320.34;5079631;27;45453;-69
2024/03/20 10:39:23;;;;;;;;;17.25;15.75;;;;;16.93;71.15;101313.91;5080372;27;45615;-68
2024/03/20 10:41:53;;;;;;;;;14.75;14.75;;;;;16.98;72.07;101311.84;5084951;27;46167;-64
2024/03/20 10:44:20;;;;;;;;;15.00;15.00;;;;;17.07;72.02;101313.19;5079231;27;45667;-68
2024/03/20 10:46:47;;;;;;;;;17.00;15.00;;;;;17.13;71.96;101312.03;5079782;27;45507;-68
2024/03/20 10:49:21;;;;;;;;;16.75;13.75;;;;;17.22;71.90;101303.44;5079944;27;45455;-68
2024/03/20 10:51:48;;;;;;;;;13.75;11.25;;;;;17.26;70.00;101301.47;5073135;27;46143;-72
2024/03/20 10:54:14;;;;;;;;;10.50;10.50;;;;;17.35;69.68;101301.00;5075817;27;45344;-71
2024/03/20 10:56:47;;;;;;;;;8.50;8.50;;;;;17.41;69.24;101298.84;5074188;27;45735;-71
2024/03/20 10:59:20;;;;;;;;;6.25;5.50;;;;;17.47;68.68;101294.94;5077915;28;45525;-71
2024/03/20 11:01:55;;;;;;;;;6.50;6.50;;;;;17.53;68.20;101297.34;5077221;27;46524;-71
2024/03/20 11:04:42;;;;;;;;;8.25;8.25;;;;;17.59;68.61;101298.81;5067402;28;45560;-71